Login to view Products
 
Tuesday, January 22, 2019 (09:23 UTC)
Sharjah International Airport
ICAO: OMSJ
IATA: SHJ
  • METAR OMSJ 220900Z 26011KT 190V300 9999 SCT040 22/11 Q1017=
  • TAF OMSJ 220500Z 2206/2312 18006KT 9999 SCT035 BECMG 2207/2209 28012KT BECMG 2215/2217 18007KT PROB30 2222/2305 4000 HZ BECMG 2307/2309 30010KT=
D:\Input Parser\Destinations\Final\05\OMSJL06120500760711909.txt
1